sensor_id;sensor_type;location;lat;lon;timestamp;pressure;altitude;pressure_sealevel;temperature;humidity
72587;BME280;60621;49.576;11.024;2023-04-07T00:00:42;98385.09;;;4.26;54.03
72587;BME280;60621;49.576;11.024;2023-04-07T00:01:46;98380.66;;;4.26;53.86
72587;BME280;60621;49.576;11.024;2023-04-07T00:02:47;98380.19;;;4.24;53.80
72587;BME280;60621;49.576;11.024;2023-04-07T00:03:49;98385.75;;;4.23;53.96
72587;BME280;60621;49.576;11.024;2023-04-07T00:04:51;98387.72;;;4.17;54.21
72587;BME280;60621;49.576;11.024;2023-04-07T00:05:53;98382.53;;;4.08;54.11
72587;BME280;60621;49.576;11.024;2023-04-07T00:06:54;98383.59;;;4.07;54.61
72587;BME280;60621;49.576;11.024;2023-04-07T00:07:56;98383.75;;;4.11;54.30
72587;BME280;60621;49.576;11.024;2023-04-07T00:08:58;98377.00;;;4.10;54.82
72587;BME280;60621;49.576;11.024;2023-04-07T00:09:59;98380.97;;;4.07;54.60
72587;BME280;60621;49.576;11.024;2023-04-07T00:11:01;98374.38;;;4.10;55.24
72587;BME280;60621;49.576;11.024;2023-04-07T00:12:03;98379.91;;;4.08;55.87
72587;BME280;60621;49.576;11.024;2023-04-07T00:13:04;98380.69;;;4.09;55.74
72587;BME280;60621;49.576;11.024;2023-04-07T00:14:06;98383.44;;;4.13;55.00
72587;BME280;60621;49.576;11.024;2023-04-07T00:15:08;98381.28;;;4.06;55.25
72587;BME280;60621;49.576;11.024;2023-04-07T00:16:09;98382.81;;;4.07;55.27
72587;BME280;60621;49.576;11.024;2023-04-07T00:17:11;98378.53;;;3.94;56.36
72587;BME280;60621;49.576;11.024;2023-04-07T00:18:12;98377.91;;;3.97;56.47
72587;BME280;60621;49.576;11.024;2023-04-07T00:19:14;98387.88;;;4.03;55.65
72587;BME280;60621;49.576;11.024;2023-04-07T00:20:15;98386.50;;;4.06;55.26
72587;BME280;60621;49.576;11.024;2023-04-07T00:21:17;98394.94;;;4.11;54.63
72587;BME280;60621;49.576;11.024;2023-04-07T00:22:18;98389.44;;;4.13;54.47
72587;BME280;60621;49.576;11.024;2023-04-07T00:23:20;98392.50;;;4.15;53.74
72587;BME280;60621;49.576;11.024;2023-04-07T00:24:21;98389.13;;;4.15;53.70
72587;BME280;60621;49.576;11.024;2023-04-07T00:25:34;98389.88;;;4.15;53.61
72587;BME280;60621;49.576;11.024;2023-04-07T00:26:36;98387.44;;;4.10;53.59
72587;BME280;60621;49.576;11.024;2023-04-07T00:27:37;98381.59;;;3.96;54.05
72587;BME280;60621;49.576;11.024;2023-04-07T00:28:39;98377.47;;;3.95;54.25
72587;BME280;60621;49.576;11.024;2023-04-07T00:29:40;98381.28;;;3.89;54.44
72587;BME280;60621;49.576;11.024;2023-04-07T00:30:43;98379.31;;;3.77;54.98
72587;BME280;60621;49.576;11.024;2023-04-07T00:31:45;98379.00;;;3.78;55.29
72587;BME280;60621;49.576;11.024;2023-04-07T00:32:47;98372.41;;;3.81;55.41
72587;BME280;60621;49.576;11.024;2023-04-07T00:33:49;98381.59;;;3.78;55.94
72587;BME280;60621;49.576;11.024;2023-04-07T00:34:50;98375.63;;;3.78;55.96
72587;BME280;60621;49.576;11.024;2023-04-07T00:35:52;98378.06;;;3.74;55.75
72587;BME280;60621;49.576;11.024;2023-04-07T00:36:54;98378.38;;;3.73;56.11
72587;BME280;60621;49.576;11.024;2023-04-07T00:37:56;98375.16;;;3.58;56.82
72587;BME280;60621;49.576;11.024;2023-04-07T00:38:58;98374.84;;;3.51;56.79
72587;BME280;60621;49.576;11.024;2023-04-07T00:39:59;98377.72;;;3.41;56.54
72587;BME280;60621;49.576;11.024;2023-04-07T00:41:01;98369.31;;;3.44;55.84
72587;BME280;60621;49.576;11.024;2023-04-07T00:42:03;98372.53;;;3.50;56.84
72587;BME280;60621;49.576;11.024;2023-04-07T00:43:05;98374.53;;;3.44;56.57
72587;BME280;60621;49.576;11.024;2023-04-07T00:44:07;98379.56;;;3.32;56.55
72587;BME280;60621;49.576;11.024;2023-04-07T00:45:08;98385.69;;;3.36;57.34
72587;BME280;60621;49.576;11.024;2023-04-07T00:46:11;98384.94;;;3.44;56.94
72587;BME280;60621;49.576;11.024;2023-04-07T00:47:13;98381.41;;;3.40;56.64
72587;BME280;60621;49.576;11.024;2023-04-07T00:48:15;98374.03;;;3.25;57.04
72587;BME280;60621;49.576;11.024;2023-04-07T00:49:17;98366.91;;;3.08;56.84
72587;BME280;60621;49.576;11.024;2023-04-07T00:50:18;98375.41;;;3.14;56.79
72587;BME280;60621;49.576;11.024;2023-04-07T00:51:20;98370.19;;;3.14;57.53
72587;BME280;60621;49.576;11.024;2023-04-07T00:52:23;98365.69;;;3.05;56.94
72587;BME280;60621;49.576;11.024;2023-04-07T00:53:29;98369.09;;;3.15;57.45
72587;BME280;60621;49.576;11.024;2023-04-07T00:54:31;98361.72;;;2.99;57.18
72587;BME280;60621;49.576;11.024;2023-04-07T00:55:32;98358.09;;;2.78;57.44
72587;BME280;60621;49.576;11.024;2023-04-07T00:56:34;98349.34;;;2.74;57.95
72587;BME280;60621;49.576;11.024;2023-04-07T00:57:36;98345.13;;;2.55;59.21
72587;BME280;60621;49.576;11.024;2023-04-07T00:58:38;98342.91;;;2.71;58.80
72587;BME280;60621;49.576;11.024;2023-04-07T00:59:39;98352.72;;;2.74;58.81
72587;BME280;60621;49.576;11.024;2023-04-07T01:01:08;98349.06;;;2.84;58.42
72587;BME280;60621;49.576;11.024;2023-04-07T01:02:16;98339.63;;;2.57;59.33
72587;BME280;60621;49.576;11.024;2023-04-07T01:03:30;98343.41;;;2.51;59.74
72587;BME280;60621;49.576;11.024;2023-04-07T01:04:38;98343.03;;;2.66;58.99
72587;BME280;60621;49.576;11.024;2023-04-07T01:06:49;98347.75;;;2.95;58.78
72587;BME280;60621;49.576;11.024;2023-04-07T01:08:02;98347.78;;;3.04;57.67
72587;BME280;60621;49.576;11.024;2023-04-07T01:09:10;98354.66;;;3.08;57.74
72587;BME280;60621;49.576;11.024;2023-04-07T01:10:20;98355.13;;;3.11;57.96
72587;BME280;60621;49.576;11.024;2023-04-07T01:11:24;98356.06;;;3.15;57.66
72587;BME280;60621;49.576;11.024;2023-04-07T01:14:16;98348.66;;;2.91;59.21
72587;BME280;60621;49.576;11.024;2023-04-07T01:15:20;98347.25;;;2.93;59.05
72587;BME280;60621;49.576;11.024;2023-04-07T01:16:27;98343.72;;;2.89;58.88
72587;BME280;60621;49.576;11.024;2023-04-07T01:17:31;98346.47;;;2.84;58.97
72587;BME280;60621;49.576;11.024;2023-04-07T01:18:36;98344.63;;;2.85;58.26
72587;BME280;60621;49.576;11.024;2023-04-07T01:19:42;98338.34;;;2.77;58.68
72587;BME280;60621;49.576;11.024;2023-04-07T01:20:49;98344.31;;;2.77;58.93
72587;BME280;60621;49.576;11.024;2023-04-07T01:21:53;98348.78;;;2.86;58.87
72587;BME280;60621;49.576;11.024;2023-04-07T01:22:57;98343.84;;;2.84;59.02
72587;BME280;60621;49.576;11.024;2023-04-07T01:24:33;98334.06;;;2.81;59.38
72587;BME280;60621;49.576;11.024;2023-04-07T01:27:09;98345.06;;;2.78;59.17
72587;BME280;60621;49.576;11.024;2023-04-07T01:29:38;98332.69;;;2.92;58.23
72587;BME280;60621;49.576;11.024;2023-04-07T01:30:45;98336.25;;;2.96;58.86
72587;BME280;60621;49.576;11.024;2023-04-07T01:31:48;98336.88;;;3.02;58.60
72587;BME280;60621;49.576;11.024;2023-04-07T01:32:51;98337.47;;;2.99;58.79
72587;BME280;60621;49.576;11.024;2023-04-07T01:33:54;98338.50;;;2.89;58.70
72587;BME280;60621;49.576;11.024;2023-04-07T01:34:58;98328.22;;;2.84;59.18
72587;BME280;60621;49.576;11.024;2023-04-07T01:36:01;98333.44;;;2.75;58.97
72587;BME280;60621;49.576;11.024;2023-04-07T01:37:03;98331.31;;;2.86;58.90
72587;BME280;60621;49.576;11.024;2023-04-07T01:38:07;98334.09;;;2.90;59.27
72587;BME280;60621;49.576;11.024;2023-04-07T01:39:10;98337.78;;;2.97;59.29
72587;BME280;60621;49.576;11.024;2023-04-07T01:40:12;98330.69;;;2.89;59.06
72587;BME280;60621;49.576;11.024;2023-04-07T01:41:15;98333.44;;;2.84;58.91
72587;BME280;60621;49.576;11.024;2023-04-07T01:42:19;98338.50;;;2.80;59.00
72587;BME280;60621;49.576;11.024;2023-04-07T01:43:22;98337.28;;;2.87;59.49
72587;BME280;60621;49.576;11.024;2023-04-07T01:44:24;98333.16;;;2.86;59.12
72587;BME280;60621;49.576;11.024;2023-04-07T01:45:27;98330.69;;;2.89;58.89
72587;BME280;60621;49.576;11.024;2023-04-07T01:46:30;98331.59;;;2.85;58.83
72587;BME280;60621;49.576;11.024;2023-04-07T01:47:34;98335.00;;;2.85;58.67
72587;BME280;60621;49.576;11.024;2023-04-07T01:48:38;98331.41;;;2.72;59.27
72587;BME280;60621;49.576;11.024;2023-04-07T01:49:41;98330.81;;;2.84;58.73
72587;BME280;60621;49.576;11.024;2023-04-07T01:50:44;98323.50;;;2.86;58.50
72587;BME280;60621;49.576;11.024;2023-04-07T01:51:47;98328.25;;;2.93;58.80
72587;BME280;60621;49.576;11.024;2023-04-07T01:52:51;98326.72;;;2.92;58.96
72587;BME280;60621;49.576;11.024;2023-04-07T01:53:53;98323.81;;;2.93;59.47
72587;BME280;60621;49.576;11.024;2023-04-07T01:54:56;98318.75;;;2.88;59.04
72587;BME280;60621;49.576;11.024;2023-04-07T01:55:57;98322.56;;;2.82;59.07
72587;BME280;60621;49.576;11.024;2023-04-07T01:56:59;98328.88;;;2.90;58.64
72587;BME280;60621;49.576;11.024;2023-04-07T01:58:05;98325.69;;;3.01;58.49
72587;BME280;60621;49.576;11.024;2023-04-07T01:59:07;98332.75;;;3.10;58.13
72587;BME280;60621;49.576;11.024;2023-04-07T02:00:09;98328.47;;;3.14;58.35
72587;BME280;60621;49.576;11.024;2023-04-07T02:01:10;98325.84;;;3.05;58.56
72587;BME280;60621;49.576;11.024;2023-04-07T02:02:13;98326.13;;;2.95;58.86
72587;BME280;60621;49.576;11.024;2023-04-07T02:03:28;98324.13;;;2.92;58.71
72587;BME280;60621;49.576;11.024;2023-04-07T02:04:51;98329.19;;;2.97;58.75
72587;BME280;60621;49.576;11.024;2023-04-07T02:05:56;98318.94;;;3.00;58.80
72587;BME280;60621;49.576;11.024;2023-04-07T02:07:08;98317.41;;;2.99;58.83
72587;BME280;60621;49.576;11.024;2023-04-07T02:08:12;98322.44;;;2.96;58.49
72587;BME280;60621;49.576;11.024;2023-04-07T02:09:18;98319.09;;;3.04;58.79
72587;BME280;60621;49.576;11.024;2023-04-07T02:10:23;98319.09;;;3.13;58.52
72587;BME280;60621;49.576;11.024;2023-04-07T02:11:25;98323.88;;;3.19;58.39
72587;BME280;60621;49.576;11.024;2023-04-07T02:12:29;98316.22;;;3.14;58.31
72587;BME280;60621;49.576;11.024;2023-04-07T02:13:33;98318.03;;;3.14;58.54
72587;BME280;60621;49.576;11.024;2023-04-07T02:14:35;98318.31;;;3.03;58.45
72587;BME280;60621;49.576;11.024;2023-04-07T02:15:38;98319.72;;;3.10;58.22
72587;BME280;60621;49.576;11.024;2023-04-07T02:16:41;98320.94;;;3.12;58.54
72587;BME280;60621;49.576;11.024;2023-04-07T02:17:47;98323.13;;;3.19;58.38
72587;BME280;60621;49.576;11.024;2023-04-07T02:18:50;98317.59;;;3.20;57.85
72587;BME280;60621;49.576;11.024;2023-04-07T02:19:52;98320.97;;;3.21;58.37
72587;BME280;60621;49.576;11.024;2023-04-07T02:20:54;98326.34;;;3.24;58.53
72587;BME280;60621;49.576;11.024;2023-04-07T02:21:57;98315.44;;;3.31;58.55
72587;BME280;60621;49.576;11.024;2023-04-07T02:22:59;98320.50;;;3.36;58.83
72587;BME280;60621;49.576;11.024;2023-04-07T02:24:03;98313.75;;;3.35;58.13
72587;BME280;60621;49.576;11.024;2023-04-07T02:25:28;98312.06;;;3.22;58.72
72587;BME280;60621;49.576;11.024;2023-04-07T02:26:34;98308.69;;;3.21;58.27
72587;BME280;60621;49.576;11.024;2023-04-07T02:27:36;98306.53;;;3.06;58.21
72587;BME280;60621;49.576;11.024;2023-04-07T02:28:37;98314.38;;;3.15;58.41
72587;BME280;60621;49.576;11.024;2023-04-07T02:29:39;98307.91;;;3.21;58.26
72587;BME280;60621;49.576;11.024;2023-04-07T02:30:41;98304.56;;;3.29;58.59
72587;BME280;60621;49.576;11.024;2023-04-07T02:31:42;98305.19;;;3.34;58.38
72587;BME280;60621;49.576;11.024;2023-04-07T02:32:44;98303.94;;;3.41;58.46
72587;BME280;60621;49.576;11.024;2023-04-07T02:33:46;98304.44;;;3.43;58.10
72587;BME280;60621;49.576;11.024;2023-04-07T02:34:47;98318.84;;;3.40;58.51
72587;BME280;60621;49.576;11.024;2023-04-07T02:35:49;98301.66;;;3.39;57.61
72587;BME280;60621;49.576;11.024;2023-04-07T02:36:50;98308.25;;;3.28;58.08
72587;BME280;60621;49.576;11.024;2023-04-07T02:37:52;98299.66;;;3.19;58.12
72587;BME280;60621;49.576;11.024;2023-04-07T02:38:54;98302.88;;;3.24;58.03
72587;BME280;60621;49.576;11.024;2023-04-07T02:39:55;98302.09;;;3.24;58.23
72587;BME280;60621;49.576;11.024;2023-04-07T02:40:57;98300.25;;;3.24;58.48
72587;BME280;60621;49.576;11.024;2023-04-07T02:41:59;98290.59;;;3.16;58.20
72587;BME280;60621;49.576;11.024;2023-04-07T02:43:01;98301.78;;;3.17;58.88
72587;BME280;60621;49.576;11.024;2023-04-07T02:44:02;98293.78;;;3.13;58.66
72587;BME280;60621;49.576;11.024;2023-04-07T02:45:05;98293.94;;;3.08;58.77
72587;BME280;60621;49.576;11.024;2023-04-07T02:46:07;98296.69;;;3.03;59.02
72587;BME280;60621;49.576;11.024;2023-04-07T02:47:09;98291.97;;;3.14;59.05
72587;BME280;60621;49.576;11.024;2023-04-07T02:48:10;98299.19;;;3.25;58.73
72587;BME280;60621;49.576;11.024;2023-04-07T02:49:12;98295.50;;;3.35;58.61
72587;BME280;60621;49.576;11.024;2023-04-07T02:50:13;98298.72;;;3.32;59.11
72587;BME280;60621;49.576;11.024;2023-04-07T02:51:15;98293.38;;;3.37;59.08
72587;BME280;60621;49.576;11.024;2023-04-07T02:52:16;98305.00;;;3.31;58.04
72587;BME280;60621;49.576;11.024;2023-04-07T02:53:18;98298.13;;;3.35;58.19
72587;BME280;60621;49.576;11.024;2023-04-07T02:54:19;98298.44;;;3.33;58.40
72587;BME280;60621;49.576;11.024;2023-04-07T02:55:21;98300.41;;;3.37;58.58
72587;BME280;60621;49.576;11.024;2023-04-07T02:56:22;98298.72;;;3.32;58.47
72587;BME280;60621;49.576;11.024;2023-04-07T02:57:24;98292.75;;;3.31;58.44
72587;BME280;60621;49.576;11.024;2023-04-07T02:58:25;98297.66;;;3.33;58.41
72587;BME280;60621;49.576;11.024;2023-04-07T02:59:27;98293.66;;;3.36;58.40
72587;BME280;60621;49.576;11.024;2023-04-07T03:00:28;98294.75;;;3.43;58.32
72587;BME280;60621;49.576;11.024;2023-04-07T03:01:30;98299.03;;;3.39;58.04
72587;BME280;60621;49.576;11.024;2023-04-07T03:02:31;98296.13;;;3.41;58.65
72587;BME280;60621;49.576;11.024;2023-04-07T03:03:33;98293.38;;;3.28;58.16
72587;BME280;60621;49.576;11.024;2023-04-07T03:04:35;98295.06;;;3.33;58.58
72587;BME280;60621;49.576;11.024;2023-04-07T03:05:36;98298.59;;;3.37;58.36
72587;BME280;60621;49.576;11.024;2023-04-07T03:06:38;98299.03;;;3.39;58.04
72587;BME280;60621;49.576;11.024;2023-04-07T03:07:39;98301.97;;;3.38;58.72
72587;BME280;60621;49.576;11.024;2023-04-07T03:08:41;98298.44;;;3.42;58.62
72587;BME280;60621;49.576;11.024;2023-04-07T03:09:43;98303.78;;;3.46;58.35
72587;BME280;60621;49.576;11.024;2023-04-07T03:10:44;98306.88;;;3.39;58.75
72587;BME280;60621;49.576;11.024;2023-04-07T03:11:46;98299.19;;;3.34;58.44
72587;BME280;60621;49.576;11.024;2023-04-07T03:12:47;98302.25;;;3.19;59.36
72587;BME280;60621;49.576;11.024;2023-04-07T03:13:49;98306.06;;;3.21;59.79
72587;BME280;60621;49.576;11.024;2023-04-07T03:14:51;98300.41;;;3.19;59.30
72587;BME280;60621;49.576;11.024;2023-04-07T03:15:52;98305.44;;;3.07;59.32
72587;BME280;60621;49.576;11.024;2023-04-07T03:16:54;98306.84;;;3.04;59.49
72587;BME280;60621;49.576;11.024;2023-04-07T03:17:56;98303.31;;;3.09;59.66
72587;BME280;60621;49.576;11.024;2023-04-07T03:18:58;98304.38;;;3.08;59.98
72587;BME280;60621;49.576;11.024;2023-04-07T03:19:59;98304.38;;;2.99;59.72
72587;BME280;60621;49.576;11.024;2023-04-07T03:21:01;98301.00;;;3.07;59.56
72587;BME280;60621;49.576;11.024;2023-04-07T03:22:03;98296.53;;;3.08;59.21
72587;BME280;60621;49.576;11.024;2023-04-07T03:23:04;98290.91;;;3.15;59.40
72587;BME280;60621;49.576;11.024;2023-04-07T03:24:06;98291.84;;;3.19;58.83
72587;BME280;60621;49.576;11.024;2023-04-07T03:25:08;98287.66;;;3.18;59.04
72587;BME280;60621;49.576;11.024;2023-04-07T03:26:10;98294.72;;;3.17;59.15
72587;BME280;60621;49.576;11.024;2023-04-07T03:27:11;98302.25;;;3.19;59.33
72587;BME280;60621;49.576;11.024;2023-04-07T03:28:13;98293.19;;;3.16;59.40
72587;BME280;60621;49.576;11.024;2023-04-07T03:29:14;98304.56;;;3.20;59.37
72587;BME280;60621;49.576;11.024;2023-04-07T03:30:16;98298.75;;;3.23;58.71
72587;BME280;60621;49.576;11.024;2023-04-07T03:31:18;98301.94;;;3.20;59.21
72587;BME280;60621;49.576;11.024;2023-04-07T03:32:19;98301.94;;;3.20;59.18
72587;BME280;60621;49.576;11.024;2023-04-07T03:33:21;98298.56;;;3.20;59.17
72587;BME280;60621;49.576;11.024;2023-04-07T03:34:22;98296.59;;;3.25;58.98
72587;BME280;60621;49.576;11.024;2023-04-07T03:35:24;98296.13;;;3.32;59.05
72587;BME280;60621;49.576;11.024;2023-04-07T03:36:26;98297.03;;;3.36;58.83
72587;BME280;60621;49.576;11.024;2023-04-07T03:37:28;98292.59;;;3.37;59.28
72587;BME280;60621;49.576;11.024;2023-04-07T03:38:30;98291.38;;;3.43;59.24
72587;BME280;60621;49.576;11.024;2023-04-07T03:39:32;98290.31;;;3.44;59.70
72587;BME280;60621;49.576;11.024;2023-04-07T03:40:33;98296.13;;;3.49;59.53
72587;BME280;60621;49.576;11.024;2023-04-07T03:41:36;98299.22;;;3.51;59.61
72587;BME280;60621;49.576;11.024;2023-04-07T03:42:38;98303.03;;;3.54;59.39
72587;BME280;60621;49.576;11.024;2023-04-07T03:43:40;98297.22;;;3.48;59.30
72587;BME280;60621;49.576;11.024;2023-04-07T03:44:41;98295.34;;;3.40;58.55
72587;BME280;60621;49.576;11.024;2023-04-07T03:45:43;98293.22;;;3.51;58.61
72587;BME280;60621;49.576;11.024;2023-04-07T03:46:45;98294.00;;;3.43;58.97
72587;BME280;60621;49.576;11.024;2023-04-07T03:47:48;98286.47;;;3.41;59.51
72587;BME280;60621;49.576;11.024;2023-04-07T03:48:50;98294.00;;;3.43;59.49
72587;BME280;60621;49.576;11.024;2023-04-07T03:49:51;98293.22;;;3.42;59.34
72587;BME280;60621;49.576;11.024;2023-04-07T03:50:53;98294.44;;;3.45;59.09
72587;BME280;60621;49.576;11.024;2023-04-07T03:51:54;98292.75;;;3.49;59.09
72587;BME280;60621;49.576;11.024;2023-04-07T03:52:56;98291.84;;;3.45;59.20
72587;BME280;60621;49.576;11.024;2023-04-07T03:53:57;98287.53;;;3.40;59.11
72587;BME280;60621;49.576;11.024;2023-04-07T03:54:58;98292.59;;;3.37;59.80
72587;BME280;60621;49.576;11.024;2023-04-07T03:56:00;98289.97;;;3.37;59.53
72587;BME280;60621;49.576;11.024;2023-04-07T03:57:02;98288.00;;;3.42;59.76
72587;BME280;60621;49.576;11.024;2023-04-07T03:58:04;98289.81;;;3.42;59.61
72587;BME280;60621;49.576;11.024;2023-04-07T03:59:06;98296.88;;;3.41;59.62
72587;BME280;60621;49.576;11.024;2023-04-07T04:00:08;98287.50;;;3.23;60.20
72587;BME280;60621;49.576;11.024;2023-04-07T04:01:10;98296.41;;;3.13;60.90
72587;BME280;60621;49.576;11.024;2023-04-07T04:02:12;98284.28;;;3.08;60.33
72587;BME280;60621;49.576;11.024;2023-04-07T04:03:14;98281.53;;;2.96;60.58
72587;BME280;60621;49.576;11.024;2023-04-07T04:04:15;98288.22;;;2.89;60.70
72587;BME280;60621;49.576;11.024;2023-04-07T04:05:17;98285.81;;;3.01;60.69
72587;BME280;60621;49.576;11.024;2023-04-07T04:06:19;98287.38;;;3.11;59.82
72587;BME280;60621;49.576;11.024;2023-04-07T04:07:21;98291.84;;;3.19;60.42
72587;BME280;60621;49.576;11.024;2023-04-07T04:08:22;98289.81;;;3.16;59.98
72587;BME280;60621;49.576;11.024;2023-04-07T04:09:24;98294.28;;;3.15;59.68
72587;BME280;60621;49.576;11.024;2023-04-07T04:10:26;98290.00;;;3.19;59.92
72587;BME280;60621;49.576;11.024;2023-04-07T04:11:27;98287.38;;;3.11;59.91
72587;BME280;60621;49.576;11.024;2023-04-07T04:12:29;98279.06;;;3.00;59.90
72587;BME280;60621;49.576;11.024;2023-04-07T04:13:30;98285.34;;;3.07;59.94
72587;BME280;60621;49.576;11.024;2023-04-07T04:14:32;98289.97;;;3.11;60.26
72587;BME280;60621;49.576;11.024;2023-04-07T04:15:33;98285.53;;;3.11;59.83
72587;BME280;60621;49.576;11.024;2023-04-07T04:16:35;98288.13;;;3.11;59.89
72587;BME280;60621;49.576;11.024;2023-04-07T04:17:37;98282.72;;;2.99;59.46
72587;BME280;60621;49.576;11.024;2023-04-07T04:18:38;98287.81;;;3.04;59.97
72587;BME280;60621;49.576;11.024;2023-04-07T04:19:40;98290.56;;;3.07;59.72
72587;BME280;60621;49.576;11.024;2023-04-07T04:20:42;98285.47;;;2.94;60.20
72587;BME280;60621;49.576;11.024;2023-04-07T04:21:43;98283.78;;;2.89;59.62
72587;BME280;60621;49.576;11.024;2023-04-07T04:22:44;98288.09;;;2.85;59.95
72587;BME280;60621;49.576;11.024;2023-04-07T04:23:46;98285.00;;;2.83;59.89
72587;BME280;60621;49.576;11.024;2023-04-07T04:24:48;98292.84;;;2.92;59.43
72587;BME280;60621;49.576;11.024;2023-04-07T04:25:49;98290.25;;;3.00;59.42
72587;BME280;60621;49.576;11.024;2023-04-07T04:26:51;98288.84;;;2.94;59.86
72587;BME280;60621;49.576;11.024;2023-04-07T04:27:52;98289.00;;;2.89;59.73
72587;BME280;60621;49.576;11.024;2023-04-07T04:28:54;98294.06;;;2.86;60.04
72587;BME280;60621;49.576;11.024;2023-04-07T04:29:55;98285.63;;;2.89;59.80
72587;BME280;60621;49.576;11.024;2023-04-07T04:30:57;98283.03;;;2.89;59.61
72587;BME280;60621;49.576;11.024;2023-04-07T04:31:59;98284.06;;;2.79;59.59
72587;BME280;60621;49.576;11.024;2023-04-07T04:33:01;98281.94;;;2.81;59.65
72587;BME280;60621;49.576;11.024;2023-04-07T04:34:03;98278.56;;;2.89;59.52
72587;BME280;60621;49.576;11.024;2023-04-07T04:35:05;98273.22;;;2.94;59.46
72587;BME280;60621;49.576;11.024;2023-04-07T04:36:07;98271.41;;;2.95;59.34
72587;BME280;60621;49.576;11.024;2023-04-07T04:37:09;98277.22;;;2.92;59.72
72587;BME280;60621;49.576;11.024;2023-04-07T04:38:10;98272.78;;;2.92;59.74
72587;BME280;60621;49.576;11.024;2023-04-07T04:39:12;98267.56;;;2.92;59.68
72587;BME280;60621;49.576;11.024;2023-04-07T04:40:13;98271.38;;;2.86;59.79
72587;BME280;60621;49.576;11.024;2023-04-07T04:41:15;98266.78;;;2.92;59.63
72587;BME280;60621;49.576;11.024;2023-04-07T04:42:16;98271.06;;;2.88;59.67
72587;BME280;60621;49.576;11.024;2023-04-07T04:43:18;98274.75;;;2.87;59.89
72587;BME280;60621;49.576;11.024;2023-04-07T04:44:20;98268.94;;;2.90;59.72
72587;BME280;60621;49.576;11.024;2023-04-07T04:45:21;98270.63;;;2.86;60.43
72587;BME280;60621;49.576;11.024;2023-04-07T04:46:23;98273.69;;;2.88;60.10
72587;BME280;60621;49.576;11.024;2023-04-07T04:47:25;98272.16;;;2.87;60.41
72587;BME280;60621;49.576;11.024;2023-04-07T04:48:27;98277.06;;;2.97;60.21
72587;BME280;60621;49.576;11.024;2023-04-07T04:49:29;98271.56;;;3.07;59.43
72587;BME280;60621;49.576;11.024;2023-04-07T04:50:30;98280.94;;;3.17;59.16
72587;BME280;60621;49.576;11.024;2023-04-07T04:51:32;98277.69;;;3.02;59.17
72587;BME280;60621;49.576;11.024;2023-04-07T04:52:33;98279.06;;;2.91;60.11
72587;BME280;60621;49.576;11.024;2023-04-07T04:53:35;98278.44;;;2.94;59.65
72587;BME280;60621;49.576;11.024;2023-04-07T04:54:37;98286.59;;;3.01;59.19
72587;BME280;60621;49.576;11.024;2023-04-07T04:55:38;98276.47;;;3.00;58.71
72587;BME280;60621;49.576;11.024;2023-04-07T04:56:43;98277.81;;;2.89;59.06
72587;BME280;60621;49.576;11.024;2023-04-07T04:57:44;98283.19;;;2.92;59.97
72587;BME280;60621;49.576;11.024;2023-04-07T04:58:46;98278.91;;;2.96;59.75
72587;BME280;60621;49.576;11.024;2023-04-07T04:59:48;98281.22;;;3.06;60.06
72587;BME280;60621;49.576;11.024;2023-04-07T05:00:52;98280.16;;;3.16;59.30
72587;BME280;60621;49.576;11.024;2023-04-07T05:01:58;98287.41;;;3.28;59.16
72587;BME280;60621;49.576;11.024;2023-04-07T05:02:59;98285.69;;;3.32;59.01
72587;BME280;60621;49.576;11.024;2023-04-07T05:04:01;98292.47;;;3.33;59.11
72587;BME280;60621;49.576;11.024;2023-04-07T05:05:04;98290.91;;;3.41;58.92
72587;BME280;60621;49.576;11.024;2023-04-07T05:06:06;98286.16;;;3.43;59.68
72587;BME280;60621;49.576;11.024;2023-04-07T05:07:07;98286.47;;;3.41;59.06
72587;BME280;60621;49.576;11.024;2023-04-07T05:08:10;98283.88;;;3.32;58.96
72587;BME280;60621;49.576;11.024;2023-04-07T05:09:11;98280.78;;;3.39;58.83
72587;BME280;60621;49.576;11.024;2023-04-07T05:10:13;98284.78;;;3.37;58.56
72587;BME280;60621;49.576;11.024;2023-04-07T05:11:15;98277.56;;;3.33;59.03
72587;BME280;60621;49.576;11.024;2023-04-07T05:12:16;98280.47;;;3.41;58.93
72587;BME280;60621;49.576;11.024;2023-04-07T05:13:18;98283.72;;;3.38;58.96
72587;BME280;60621;49.576;11.024;2023-04-07T05:14:19;98281.09;;;3.38;58.59
72587;BME280;60621;49.576;11.024;2023-04-07T05:15:21;98286.78;;;3.48;58.09
72587;BME280;60621;49.576;11.024;2023-04-07T05:16:22;98287.84;;;3.47;58.22
72587;BME280;60621;49.576;11.024;2023-04-07T05:17:24;98287.22;;;3.50;58.29
72587;BME280;60621;49.576;11.024;2023-04-07T05:18:25;98282.16;;;3.54;58.50
72587;BME280;60621;49.576;11.024;2023-04-07T05:19:27;98288.16;;;3.54;58.58
72587;BME280;60621;49.576;11.024;2023-04-07T05:20:30;98294.28;;;3.58;57.99
72587;BME280;60621;49.576;11.024;2023-04-07T05:21:31;98297.81;;;3.71;58.17
72587;BME280;60621;49.576;11.024;2023-04-07T05:22:33;98297.50;;;3.81;57.92
72587;BME280;60621;49.576;11.024;2023-04-07T05:23:35;98296.88;;;3.84;57.78
72587;BME280;60621;49.576;11.024;2023-04-07T05:24:37;98294.13;;;3.90;58.38
72587;BME280;60621;49.576;11.024;2023-04-07T05:25:38;98294.88;;;3.99;57.48
72587;BME280;60621;49.576;11.024;2023-04-07T05:26:40;98290.25;;;4.04;57.16
72587;BME280;60621;49.576;11.024;2023-04-07T05:27:41;98296.22;;;4.05;57.35
72587;BME280;60621;49.576;11.024;2023-04-07T05:28:43;98288.84;;;4.07;57.55
72587;BME280;60621;49.576;11.024;2023-04-07T05:29:44;98294.41;;;3.97;57.22
72587;BME280;60621;49.576;11.024;2023-04-07T05:30:47;98290.09;;;3.92;58.12
72587;BME280;60621;49.576;11.024;2023-04-07T05:31:48;98287.81;;;3.91;58.08
72587;BME280;60621;49.576;11.024;2023-04-07T05:32:51;98298.41;;;3.77;58.42
72587;BME280;60621;49.576;11.024;2023-04-07T05:33:53;98287.22;;;3.85;57.76
72587;BME280;60621;49.576;11.024;2023-04-07T05:34:54;98290.28;;;3.87;58.01
72587;BME280;60621;49.576;11.024;2023-04-07T05:35:56;98283.50;;;3.95;57.85
72587;BME280;60621;49.576;11.024;2023-04-07T05:36:58;98288.09;;;3.98;57.71
72587;BME280;60621;49.576;11.024;2023-04-07T05:37:59;98292.38;;;4.02;57.69